createdAt,value
2023-03-18T00:02:03.396Z,11.00
2023-03-18T00:05:35.798Z,10.80
2023-03-18T01:21:41.405Z,11.10
2023-03-18T01:25:03.644Z,8.90
2023-03-18T01:32:37.750Z,7.80
2023-03-18T02:07:56.300Z,7.30
2023-03-18T02:11:26.455Z,10.30
2023-03-18T02:14:55.627Z,9.40
2023-03-18T02:18:17.633Z,11.00
2023-03-18T02:22:11.810Z,12.30
2023-03-18T02:26:01.267Z,10.20
2023-03-18T02:47:31.529Z,9.40
2023-03-18T02:51:13.558Z,11.90
2023-03-18T02:54:46.869Z,11.00
2023-03-18T02:58:01.665Z,11.00
2023-03-18T03:01:49.069Z,9.50
2023-03-18T03:19:51.444Z,9.40
2023-03-18T03:27:34.626Z,11.80
2023-03-18T03:31:07.616Z,11.10
2023-03-18T04:05:05.141Z,10.70
2023-03-18T04:40:26.640Z,12.10
2023-03-18T04:43:51.290Z,12.70
2023-03-18T04:47:13.867Z,11.60
2023-03-18T05:06:49.957Z,12.20
2023-03-18T05:10:34.815Z,10.70
2023-03-18T05:13:58.001Z,12.60
2023-03-18T05:17:19.278Z,11.00
2023-03-18T05:39:20.043Z,9.60
2023-03-18T05:42:56.122Z,13.00
2023-03-18T05:46:31.376Z,13.30
2023-03-18T05:50:16.142Z,10.00
2023-03-18T05:53:49.849Z,11.90
2023-03-18T06:23:02.965Z,12.80
2023-03-18T06:26:33.278Z,12.10
2023-03-18T06:30:11.259Z,9.90
2023-03-18T06:33:41.285Z,11.40
2023-03-18T06:37:20.576Z,11.10
2023-03-18T07:00:02.382Z,12.60
2023-03-18T07:03:33.118Z,12.60
2023-03-18T07:07:05.656Z,12.70
2023-03-18T07:10:41.967Z,11.00
2023-03-18T07:29:38.495Z,12.40
2023-03-18T07:33:10.472Z,13.40
2023-03-18T07:36:49.010Z,12.70
2023-03-18T07:44:32.048Z,11.60
2023-03-18T07:48:07.579Z,12.50
2023-03-18T07:51:37.839Z,12.50
2023-03-18T07:55:12.948Z,12.30
2023-03-18T07:58:53.033Z,12.70
2023-03-18T08:17:31.012Z,13.40
2023-03-18T08:21:03.330Z,13.10
2023-03-18T08:40:00.824Z,11.30
2023-03-18T08:43:41.517Z,10.30
2023-03-18T08:47:24.977Z,50.80
2023-03-18T08:50:59.437Z,10.60
2023-03-18T08:54:09.317Z,11.10
2023-03-18T09:01:47.704Z,8.10
2023-03-18T09:20:36.950Z,7.60
2023-03-18T09:24:07.610Z,6.40
2023-03-18T09:27:37.093Z,6.40
2023-03-18T09:31:06.462Z,7.40
2023-03-18T10:00:34.105Z,6.80
2023-03-18T10:08:36.409Z,6.90
2023-03-18T10:12:11.424Z,6.40
2023-03-18T10:15:46.934Z,6.20
2023-03-18T10:19:39.559Z,6.70
2023-03-18T10:38:21.658Z,6.60
2023-03-18T10:41:57.622Z,6.20
2023-03-18T10:45:37.087Z,6.50
2023-03-18T10:49:15.102Z,7.10
2023-03-18T10:53:16.654Z,6.30
2023-03-18T11:12:33.312Z,6.10
2023-03-18T11:16:20.787Z,6.60
2023-03-18T11:19:50.595Z,6.70
2023-03-18T11:35:42.741Z,6.90
2023-03-18T11:39:33.233Z,6.50
2023-03-18T11:43:02.294Z,7.00
2023-03-18T11:46:51.151Z,7.80
2023-03-18T11:50:22.442Z,7.90
2023-03-18T11:58:00.753Z,6.80
2023-03-18T12:30:36.116Z,7.00
2023-03-18T12:34:35.513Z,7.10
2023-03-18T12:38:04.617Z,6.40
2023-03-18T12:41:37.894Z,6.80
2023-03-18T12:45:09.179Z,6.80
2023-03-18T12:48:55.437Z,7.30
2023-03-18T12:52:28.204Z,7.20
2023-03-18T13:08:00.038Z,6.90
2023-03-18T13:11:38.248Z,7.50
2023-03-18T13:15:16.899Z,6.80
2023-03-18T13:18:56.054Z,6.80
2023-03-18T13:22:25.796Z,6.90
2023-03-18T13:26:00.445Z,7.00
2023-03-18T13:29:47.634Z,6.90
2023-03-18T13:33:22.316Z,7.40
2023-03-18T13:37:12.040Z,7.80
2023-03-18T13:55:44.977Z,7.20
2023-03-18T13:59:23.864Z,7.30
2023-03-18T14:02:57.074Z,7.30
2023-03-18T14:06:35.650Z,7.40
2023-03-18T14:10:19.439Z,7.30
2023-03-18T14:14:04.759Z,7.00
2023-03-18T14:29:33.420Z,7.30
2023-03-18T14:33:14.566Z,7.60
2023-03-18T14:36:55.399Z,7.30
2023-03-18T14:40:22.698Z,7.80
2023-03-18T14:48:01.911Z,8.10
2023-03-18T14:51:42.932Z,7.30
2023-03-18T15:16:46.338Z,8.10
2023-03-18T15:20:40.125Z,9.00
2023-03-18T15:24:06.864Z,7.80
2023-03-18T15:27:45.619Z,8.10
2023-03-18T15:31:31.250Z,8.30
2023-03-18T15:39:20.980Z,7.70
2023-03-18T15:42:58.164Z,8.50
2023-03-18T15:46:52.738Z,15.50
2023-03-18T15:54:23.296Z,9.70
2023-03-18T15:58:02.042Z,8.70
2023-03-18T16:01:33.217Z,8.20
2023-03-18T16:05:20.665Z,9.20
2023-03-18T16:09:06.917Z,8.60
2023-03-18T16:23:41.866Z,9.40
2023-03-18T16:27:18.576Z,9.60
2023-03-18T16:30:58.377Z,11.80
2023-03-18T16:43:09.718Z,15.90
2023-03-18T16:46:59.978Z,21.30
2023-03-18T17:19:42.951Z,15.30
2023-03-18T17:23:25.673Z,15.20
2023-03-18T17:26:37.324Z,11.90
2023-03-18T17:30:19.063Z,14.50
2023-03-18T17:33:48.437Z,15.00
2023-03-18T17:37:25.172Z,13.40
2023-03-18T17:40:53.845Z,15.20
2023-03-18T17:44:35.738Z,19.80
2023-03-18T18:03:12.831Z,56.10
2023-03-18T18:06:44.521Z,33.40
2023-03-18T18:10:22.154Z,31.10
2023-03-18T18:32:37.169Z,40.70
2023-03-18T18:36:05.980Z,30.50
2023-03-18T18:39:35.461Z,31.60
2023-03-18T18:43:07.956Z,35.50
2023-03-18T18:50:08.688Z,35.70
2023-03-18T19:13:20.476Z,31.90
2023-03-18T19:21:14.274Z,29.50
2023-03-18T19:24:46.254Z,30.40
2023-03-18T19:43:33.673Z,30.20
2023-03-18T20:10:45.567Z,27.30
2023-03-18T20:14:18.148Z,25.80
2023-03-18T20:17:52.402Z,28.50
2023-03-18T20:21:30.313Z,27.90
2023-03-18T20:25:05.338Z,26.30
2023-03-18T20:47:21.197Z,53.40
2023-03-18T20:50:50.956Z,40.20
2023-03-18T20:54:24.811Z,29.70
2023-03-18T20:58:18.120Z,32.60
2023-03-18T21:13:33.685Z,31.50
2023-03-18T21:17:04.874Z,26.00
2023-03-18T21:20:40.596Z,25.80
2023-03-18T22:51:18.486Z,21.50
2023-03-18T22:54:48.478Z,19.70
2023-03-18T23:13:23.883Z,19.00
2023-03-18T23:20:20.189Z,17.60
2023-03-18T23:23:50.947Z,18.90
2023-03-18T23:27:23.602Z,17.00
